Time;durP1;ratioP1;P1;durP2;ratioP2;P2;SDS_P1;SDS_P2;PMS_P1;PMS_P2;Temp;Humidity;BMP_temperature;BMP_pressure;BME280_temperature;BME280_humidity;BME280_pressure;Samples;Min_cycle;Max_cycle;Signal;HPM_P1;HPM_P2
2021/06/30 00:01:14;;;;;;;19.92;14.35;;;;;;;;;;6215083;23;20000;-49
2021/06/30 00:03:40;;;;;;;15.00;12.35;;;;;;;;;;6215189;23;20035;-50
2021/06/30 00:06:07;;;;;;;17.98;13.93;;;;;;;;;;6215010;23;19997;-51
2021/06/30 00:08:33;;;;;;;19.10;14.10;;;;;;;;;;6214551;23;20028;-51
2021/06/30 00:10:59;;;;;;;15.32;11.93;;;;;;;;;;6215066;23;20075;-51
2021/06/30 00:13:25;;;;;;;14.30;12.60;;;;;;;;;;6215264;23;20390;-51
2021/06/30 00:15:52;;;;;;;18.08;14.02;;;;;;;;;;6215151;23;20542;-50
2021/06/30 00:18:18;;;;;;;18.30;15.00;;;;;;;;;;6214985;23;20084;-51
2021/06/30 00:20:44;;;;;;;19.75;15.25;;;;;;;;;;6214644;23;20036;-51
2021/06/30 00:23:10;;;;;;;17.48;13.52;;;;;;;;;;6215130;23;20001;-50
2021/06/30 00:25:36;;;;;;;21.63;15.38;;;;;;;;;;6215167;23;20005;-50
2021/06/30 00:28:02;;;;;;;18.65;15.30;;;;;;;;;;6187941;23;20011;-50
2021/06/30 00:30:28;;;;;;;20.77;16.70;;;;;;;;;;6214748;23;20096;-50
2021/06/30 00:32:55;;;;;;;20.65;15.82;;;;;;;;;;6215063;23;20024;-52
2021/06/30 00:35:21;;;;;;;20.55;14.95;;;;;;;;;;6214600;23;20000;-50
2021/06/30 00:37:47;;;;;;;18.77;14.35;;;;;;;;;;6214414;23;20321;-50
2021/06/30 00:40:13;;;;;;;20.95;16.08;;;;;;;;;;6214877;23;20000;-49
2021/06/30 00:42:39;;;;;;;17.92;15.90;;;;;;;;;;6214634;23;20027;-50
2021/06/30 00:45:06;;;;;;;23.27;16.20;;;;;;;;;;6214389;23;20011;-51
2021/06/30 00:47:32;;;;;;;21.75;17.08;;;;;;;;;;6214848;23;20080;-52
2021/06/30 00:49:59;;;;;;;26.83;18.02;;;;;;;;;;6214335;23;20500;-50
2021/06/30 00:52:25;;;;;;;27.60;18.27;;;;;;;;;;6215222;23;20000;-50
2021/06/30 00:54:51;;;;;;;18.25;14.65;;;;;;;;;;6213961;23;20058;-50
2021/06/30 00:57:18;;;;;;;23.63;17.65;;;;;;;;;;6214727;23;20011;-51
2021/06/30 00:59:44;;;;;;;26.38;17.67;;;;;;;;;;6214497;23;20080;-50
2021/06/30 01:02:10;;;;;;;23.75;17.88;;;;;;;;;;6214872;23;20076;-50
2021/06/30 01:04:36;;;;;;;23.65;19.30;;;;;;;;;;6214729;23;20035;-50
2021/06/30 01:07:02;;;;;;;25.08;18.85;;;;;;;;;;6214603;23;20417;-51
2021/06/30 01:09:28;;;;;;;27.48;18.52;;;;;;;;;;6214105;23;20001;-51
2021/06/30 01:11:54;;;;;;;31.15;19.67;;;;;;;;;;6214700;23;19997;-51
2021/06/30 01:14:27;;;;;;;31.40;20.63;;;;;;;;;;6214497;23;20047;-51
2021/06/30 01:16:53;;;;;;;28.08;20.00;;;;;;;;;;6214761;23;20386;-50
2021/06/30 01:19:20;;;;;;;25.27;19.67;;;;;;;;;;6214244;23;20078;-50
2021/06/30 01:21:46;;;;;;;22.58;17.67;;;;;;;;;;6214715;23;20372;-50
2021/06/30 01:24:12;;;;;;;25.05;17.92;;;;;;;;;;6187257;23;20036;-50
2021/06/30 01:26:38;;;;;;;24.13;18.90;;;;;;;;;;6214439;23;20051;-51
2021/06/30 01:29:04;;;;;;;22.52;18.08;;;;;;;;;;6213916;23;20035;-51
2021/06/30 01:31:30;;;;;;;24.42;18.63;;;;;;;;;;6214637;23;20001;-51
2021/06/30 01:33:56;;;;;;;26.48;19.23;;;;;;;;;;6214319;23;20051;-52
2021/06/30 01:36:22;;;;;;;22.90;17.95;;;;;;;;;;6214365;23;20007;-50
2021/06/30 01:38:48;;;;;;;25.55;18.23;;;;;;;;;;6213812;23;20001;-51
2021/06/30 01:41:14;;;;;;;25.17;19.50;;;;;;;;;;6213974;23;20050;-51
2021/06/30 01:43:44;;;;;;;30.40;22.02;;;;;;;;;;6214685;23;20051;-53
2021/06/30 01:46:10;;;;;;;24.05;19.40;;;;;;;;;;6214446;23;20494;-50
2021/06/30 01:48:36;;;;;;;30.73;21.67;;;;;;;;;;6213853;23;20036;-50
2021/06/30 01:51:03;;;;;;;30.65;21.63;;;;;;;;;;6214204;23;20008;-50
2021/06/30 01:53:29;;;;;;;33.83;21.65;;;;;;;;;;6213893;23;20000;-52
2021/06/30 01:55:55;;;;;;;23.83;19.25;;;;;;;;;;6214561;23;20011;-50
2021/06/30 01:58:22;;;;;;;25.45;18.70;;;;;;;;;;6212571;23;20084;-50
2021/06/30 02:00:49;;;;;;;29.85;21.88;;;;;;;;;;6214350;23;20076;-51
2021/06/30 02:03:15;;;;;;;24.77;19.67;;;;;;;;;;6214375;23;20008;-50
2021/06/30 02:05:41;;;;;;;24.92;19.30;;;;;;;;;;6214422;23;20455;-51
2021/06/30 02:08:07;;;;;;;34.40;20.98;;;;;;;;;;6214887;23;20007;-54
2021/06/30 02:10:33;;;;;;;28.45;19.98;;;;;;;;;;6216243;23;20011;-51
2021/06/30 02:12:59;;;;;;;34.17;23.55;;;;;;;;;;6216434;23;20004;-55
2021/06/30 02:15:29;;;;;;;33.75;22.77;;;;;;;;;;6216691;23;19993;-51
2021/06/30 02:17:59;;;;;;;32.45;21.75;;;;;;;;;;6215937;23;20020;-52
2021/06/30 02:20:26;;;;;;;28.33;22.05;;;;;;;;;;6216059;23;20419;-51
2021/06/30 02:22:52;;;;;;;31.50;22.23;;;;;;;;;;6216087;23;20321;-54
2021/06/30 02:25:26;;;;;;;29.80;21.27;;;;;;;;;;6189490;23;20005;-51
2021/06/30 02:27:52;;;;;;;;;;;;;;;;;;6216860;23;20077;-51
2021/06/30 02:30:20;;;;;;;31.17;21.23;;;;;;;;;;6216207;23;20453;-52
2021/06/30 02:32:46;;;;;;;26.15;20.92;;;;;;;;;;6216390;23;19992;-52
2021/06/30 02:35:15;;;;;;;28.98;21.90;;;;;;;;;;6215852;23;20088;-52
2021/06/30 02:37:41;;;;;;;27.63;20.23;;;;;;;;;;6215180;23;20000;-54
2021/06/30 02:40:08;;;;;;;25.75;21.08;;;;;;;;;;6216152;23;20326;-51
2021/06/30 02:42:34;;;;;;;30.00;22.08;;;;;;;;;;6216227;23;20079;-51
2021/06/30 02:45:00;;;;;;;26.85;20.75;;;;;;;;;;6215863;23;20386;-51
2021/06/30 02:47:26;;;;;;;30.25;22.73;;;;;;;;;;6216206;23;20000;-52
2021/06/30 02:49:52;;;;;;;34.33;22.88;;;;;;;;;;6214979;23;20020;-51
2021/06/30 02:52:18;;;;;;;28.25;20.85;;;;;;;;;;6215963;23;20080;-51
2021/06/30 02:54:44;;;;;;;28.13;22.05;;;;;;;;;;6215714;23;20005;-51
2021/06/30 02:57:10;;;;;;;27.38;21.05;;;;;;;;;;6216059;23;20001;-50
2021/06/30 02:59:36;;;;;;;26.30;21.42;;;;;;;;;;6215891;23;20360;-51
2021/06/30 03:02:02;;;;;;;26.42;19.30;;;;;;;;;;6215706;23;20012;-52
2021/06/30 03:04:28;;;;;;;23.88;18.73;;;;;;;;;;6215931;23;20309;-50
2021/06/30 03:06:55;;;;;;;24.20;18.48;;;;;;;;;;6216314;23;20267;-51
2021/06/30 03:09:22;;;;;;;26.83;19.23;;;;;;;;;;6215119;23;20413;-53
2021/06/30 03:11:48;;;;;;;24.65;20.60;;;;;;;;;;6215725;23;20076;-52
2021/06/30 03:14:14;;;;;;;24.75;18.48;;;;;;;;;;6216789;23;20048;-51
2021/06/30 03:16:40;;;;;;;23.85;19.10;;;;;;;;;;6215799;23;20004;-51
2021/06/30 03:19:06;;;;;;;27.27;19.27;;;;;;;;;;6215190;23;20000;-51
2021/06/30 03:21:32;;;;;;;22.55;18.65;;;;;;;;;;6216068;23;20011;-51
2021/06/30 03:23:58;;;;;;;24.83;19.13;;;;;;;;;;6215461;23;19996;-52
2021/06/30 03:26:24;;;;;;;22.80;18.65;;;;;;;;;;6216139;23;20001;-51
2021/06/30 03:28:50;;;;;;;19.98;16.88;;;;;;;;;;6214813;23;20309;-54
2021/06/30 03:31:17;;;;;;;26.70;18.75;;;;;;;;;;6215863;23;20004;-51
2021/06/30 03:33:43;;;;;;;24.98;19.33;;;;;;;;;;6215509;23;20032;-50
2021/06/30 03:36:09;;;;;;;24.67;18.00;;;;;;;;;;6215797;23;20004;-50
2021/06/30 03:38:35;;;;;;;26.23;18.85;;;;;;;;;;6214673;23;20027;-51
2021/06/30 03:41:02;;;;;;;24.38;18.33;;;;;;;;;;6215227;23;20660;-51
2021/06/30 03:43:28;;;;;;;24.15;17.80;;;;;;;;;;6215455;23;20043;-50
2021/06/30 03:45:54;;;;;;;23.02;17.83;;;;;;;;;;6215477;23;20108;-51
2021/06/30 03:48:20;;;;;;;22.90;17.65;;;;;;;;;;6214844;23;20009;-52
2021/06/30 03:50:46;;;;;;;20.75;17.42;;;;;;;;;;6215204;23;20087;-52
2021/06/30 03:53:12;;;;;;;25.38;19.27;;;;;;;;;;6214986;23;20015;-53
2021/06/30 03:55:38;;;;;;;24.63;18.83;;;;;;;;;;6215417;23;20004;-51
2021/06/30 03:58:04;;;;;;;24.92;19.30;;;;;;;;;;6214167;23;20406;-53
2021/06/30 04:00:30;;;;;;;28.13;17.85;;;;;;;;;;6215341;23;20008;-51
2021/06/30 04:02:56;;;;;;;32.88;20.63;;;;;;;;;;6214663;23;20005;-51
2021/06/30 04:05:23;;;;;;;37.10;22.98;;;;;;;;;;6215317;23;20013;-51
2021/06/30 04:07:49;;;;;;;29.77;20.17;;;;;;;;;;6214710;23;20001;-50
2021/06/30 04:10:15;;;;;;;29.60;23.02;;;;;;;;;;6215319;23;20016;-51
2021/06/30 04:12:41;;;;;;;28.60;22.15;;;;;;;;;;6215182;23;20027;-51
2021/06/30 04:15:07;;;;;;;34.53;23.58;;;;;;;;;;6215487;23;20000;-54
2021/06/30 04:17:34;;;;;;;27.13;20.77;;;;;;;;;;6214671;23;20004;-50
2021/06/30 04:20:00;;;;;;;32.03;23.55;;;;;;;;;;6215716;23;20079;-51
2021/06/30 04:22:27;;;;;;;29.15;21.10;;;;;;;;;;6214759;23;20032;-51
2021/06/30 04:24:53;;;;;;;32.25;23.92;;;;;;;;;;6215582;23;20001;-51
2021/06/30 04:27:19;;;;;;;31.80;23.02;;;;;;;;;;6215089;23;20004;-51
2021/06/30 04:29:45;;;;;;;33.20;24.17;;;;;;;;;;6214395;23;20080;-50
2021/06/30 04:32:11;;;;;;;29.52;22.48;;;;;;;;;;6214645;23;20468;-51
2021/06/30 04:34:37;;;;;;;33.53;24.05;;;;;;;;;;6215341;23;19997;-52
2021/06/30 04:37:03;;;;;;;30.85;24.23;;;;;;;;;;6214888;23;20007;-51
2021/06/30 04:39:29;;;;;;;31.23;21.48;;;;;;;;;;6214652;23;20005;-51
2021/06/30 04:41:55;;;;;;;29.25;22.75;;;;;;;;;;6214445;23;20012;-53
2021/06/30 04:44:21;;;;;;;35.75;23.65;;;;;;;;;;6214847;23;20323;-50
2021/06/30 04:46:47;;;;;;;37.88;24.02;;;;;;;;;;6214601;23;20008;-51
2021/06/30 04:49:13;;;;;;;28.42;23.13;;;;;;;;;;6214406;23;20013;-52
2021/06/30 04:51:39;;;;;;;27.52;22.38;;;;;;;;;;6214405;23;19997;-55
2021/06/30 04:54:05;;;;;;;31.48;22.35;;;;;;;;;;6214969;23;20005;-52
2021/06/30 04:56:39;;;;;;;29.65;21.83;;;;;;;;;;6214798;23;19996;-50
2021/06/30 04:59:05;;;;;;;28.80;22.55;;;;;;;;;;6214689;23;19997;-52
2021/06/30 05:01:31;;;;;;;30.63;21.33;;;;;;;;;;6214993;23;20429;-56
2021/06/30 05:03:57;;;;;;;27.20;21.25;;;;;;;;;;6214322;23;20004;-52
2021/06/30 05:06:23;;;;;;;25.42;20.95;;;;;;;;;;6214392;23;20363;-52
2021/06/30 05:08:49;;;;;;;25.50;19.70;;;;;;;;;;6214346;23;20000;-52
2021/06/30 05:11:15;;;;;;;26.52;19.60;;;;;;;;;;6214637;23;20530;-50
2021/06/30 05:13:41;;;;;;;24.65;19.65;;;;;;;;;;6214503;23;20001;-51
2021/06/30 05:16:07;;;;;;;23.85;17.67;;;;;;;;;;6214554;23;20000;-50
2021/06/30 05:18:33;;;;;;;25.52;19.60;;;;;;;;;;6213918;23;19996;-51
2021/06/30 05:20:59;;;;;;;22.92;18.23;;;;;;;;;;6214072;23;20001;-51
2021/06/30 05:23:26;;;;;;;23.73;17.70;;;;;;;;;;6214943;23;20440;-52
2021/06/30 05:25:51;;;;;;;24.83;17.75;;;;;;;;;;6214991;23;20008;-51
2021/06/30 05:28:18;;;;;;;29.38;19.15;;;;;;;;;;6213913;23;20325;-52
2021/06/30 05:30:44;;;;;;;21.88;17.80;;;;;;;;;;6214813;23;20001;-51
2021/06/30 05:33:10;;;;;;;22.98;18.80;;;;;;;;;;6213917;23;20000;-50
2021/06/30 05:35:36;;;;;;;23.17;18.60;;;;;;;;;;6214652;23;20035;-53
2021/06/30 05:38:02;;;;;;;23.17;18.35;;;;;;;;;;6213843;23;19997;-51
2021/06/30 05:40:28;;;;;;;24.90;19.55;;;;;;;;;;6187619;23;20087;-51
2021/06/30 05:42:55;;;;;;;23.45;18.38;;;;;;;;;;6214314;23;20456;-50
2021/06/30 05:45:21;;;;;;;24.30;19.50;;;;;;;;;;6214064;23;20039;-51
2021/06/30 05:47:47;;;;;;;23.23;19.05;;;;;;;;;;6213132;23;20088;-53
2021/06/30 05:50:14;;;;;;;22.05;17.63;;;;;;;;;;6213929;23;20005;-52
2021/06/30 05:52:40;;;;;;;26.05;20.00;;;;;;;;;;6214345;23;20051;-52
2021/06/30 05:55:07;;;;;;;25.13;19.73;;;;;;;;;;6214443;23;20035;-51
2021/06/30 05:57:34;;;;;;;24.55;19.15;;;;;;;;;;6214019;23;20088;-51
2021/06/30 06:00:00;;;;;;;24.85;19.23;;;;;;;;;;6213107;23;20036;-53
2021/06/30 06:02:26;;;;;;;22.98;18.13;;;;;;;;;;6187245;23;20013;-51
2021/06/30 06:04:52;;;;;;;22.63;18.52;;;;;;;;;;6214563;23;20341;-52
2021/06/30 06:07:18;;;;;;;24.05;17.80;;;;;;;;;;6214301;23;20008;-51
2021/06/30 06:09:44;;;;;;;24.42;18.85;;;;;;;;;;6213865;23;20009;-55
2021/06/30 06:12:10;;;;;;;25.08;18.95;;;;;;;;;;6213848;23;20004;-52
2021/06/30 06:14:35;;;;;;;24.20;19.70;;;;;;;;;;6214124;23;20004;-54
2021/06/30 06:17:01;;;;;;;36.88;21.73;;;;;;;;;;6214174;23;20291;-51
2021/06/30 06:19:27;;;;;;;35.15;23.52;;;;;;;;;;6213832;23;20024;-55
2021/06/30 06:21:53;;;;;;;26.75;19.85;;;;;;;;;;6213801;23;20009;-53
2021/06/30 06:24:19;;;;;;;24.95;18.38;;;;;;;;;;6187545;23;20016;-52
2021/06/30 06:26:48;;;;;;;22.52;17.20;;;;;;;;;;6214353;23;20001;-52
2021/06/30 06:29:14;;;;;;;25.08;18.98;;;;;;;;;;6214012;23;20035;-51
2021/06/30 06:31:41;;;;;;;24.15;18.60;;;;;;;;;;6214337;23;20004;-55
2021/06/30 06:34:09;;;;;;;26.80;19.17;;;;;;;;;;6214140;23;20369;-53
2021/06/30 06:36:35;;;;;;;22.00;17.95;;;;;;;;;;6214005;23;20063;-51
2021/06/30 06:39:04;;;;;;;21.60;17.48;;;;;;;;;;6213209;23;20440;-51
2021/06/30 06:41:30;;;;;;;30.98;21.38;;;;;;;;;;6214351;23;20000;-56
2021/06/30 06:43:56;;;;;;;31.33;21.23;;;;;;;;;;6214307;23;20005;-53
2021/06/30 06:46:22;;;;;;;24.55;19.63;;;;;;;;;;6214266;23;20357;-52
2021/06/30 06:48:48;;;;;;;24.83;19.48;;;;;;;;;;6213497;23;20024;-53
2021/06/30 06:51:14;;;;;;;23.58;18.20;;;;;;;;;;6187578;23;20310;-52
2021/06/30 06:53:40;;;;;;;27.17;19.17;;;;;;;;;;6214898;23;20010;-54
2021/06/30 06:56:10;;;;;;;23.38;18.38;;;;;;;;;;6215647;23;20001;-52
2021/06/30 06:58:36;;;;;;;24.70;19.45;;;;;;;;;;6216187;23;19996;-52
2021/06/30 07:01:02;;;;;;;20.98;17.35;;;;;;;;;;6216211;23;20028;-56
2021/06/30 07:03:28;;;;;;;21.55;16.98;;;;;;;;;;6215297;23;20405;-51
2021/06/30 07:05:54;;;;;;;22.38;17.02;;;;;;;;;;6216016;23;20001;-53
2021/06/30 07:08:20;;;;;;;24.40;18.88;;;;;;;;;;6215483;23;20062;-54
2021/06/30 07:10:46;;;;;;;22.27;17.23;;;;;;;;;;6215623;23;20001;-54
2021/06/30 07:13:12;;;;;;;16.60;13.60;;;;;;;;;;6215500;23;19996;-52
2021/06/30 07:15:41;;;;;;;18.30;13.68;;;;;;;;;;6215114;23;19997;-54
2021/06/30 07:18:11;;;;;;;18.33;12.93;;;;;;;;;;6215122;23;20003;-51
2021/06/30 07:20:37;;;;;;;13.50;11.82;;;;;;;;;;6214959;23;20032;-51
2021/06/30 07:23:03;;;;;;;16.98;13.05;;;;;;;;;;6215822;23;20013;-54
2021/06/30 07:25:29;;;;;;;16.00;12.23;;;;;;;;;;6215321;23;20413;-53
2021/06/30 07:27:55;;;;;;;13.10;11.70;;;;;;;;;;6215206;23;20566;-52
2021/06/30 07:30:21;;;;;;;17.23;13.07;;;;;;;;;;6216251;23;20050;-56
2021/06/30 07:32:47;;;;;;;16.05;12.75;;;;;;;;;;6215522;23;20687;-54
2021/06/30 07:35:13;;;;;;;21.80;11.90;;;;;;;;;;6215491;23;20047;-55
2021/06/30 07:37:39;;;;;;;15.68;11.13;;;;;;;;;;6215704;23;20007;-52
2021/06/30 07:40:07;;;;;;;16.42;12.50;;;;;;;;;;6215359;23;20435;-51
2021/06/30 07:42:33;;;;;;;16.60;12.13;;;;;;;;;;6216035;23;20011;-53
2021/06/30 07:44:59;;;;;;;14.43;10.48;;;;;;;;;;6215488;23;20035;-52
2021/06/30 07:47:25;;;;;;;14.05;11.20;;;;;;;;;;6214856;23;20004;-54
2021/06/30 07:49:50;;;;;;;15.20;11.73;;;;;;;;;;6214647;23;20008;-52
2021/06/30 07:52:16;;;;;;;18.17;12.85;;;;;;;;;;6214829;23;20024;-53
2021/06/30 07:54:43;;;;;;;13.45;11.32;;;;;;;;;;6215599;23;20004;-51
2021/06/30 07:57:08;;;;;;;15.38;12.00;;;;;;;;;;6215487;23;20000;-55
2021/06/30 07:59:34;;;;;;;21.30;13.77;;;;;;;;;;6213976;23;20448;-54
2021/06/30 08:02:00;;;;;;;15.82;13.20;;;;;;;;;;6214986;23;20004;-52
2021/06/30 08:04:26;;;;;;;14.32;12.48;;;;;;;;;;6214812;23;20008;-51
2021/06/30 08:06:52;;;;;;;16.92;12.77;;;;;;;;;;6215720;23;20008;-52
2021/06/30 08:09:18;;;;;;;17.92;13.45;;;;;;;;;;6214723;23;20329;-53
2021/06/30 08:11:44;;;;;;;15.05;12.73;;;;;;;;;;6215730;23;20051;-52
2021/06/30 08:14:11;;;;;;;17.38;12.75;;;;;;;;;;6215087;23;20079;-53
2021/06/30 08:16:37;;;;;;;16.70;13.18;;;;;;;;;;6215340;23;20004;-51
2021/06/30 08:19:03;;;;;;;13.82;12.15;;;;;;;;;;6214796;23;19997;-51
2021/06/30 08:21:29;;;;;;;17.40;14.25;;;;;;;;;;6215673;23;20020;-51
2021/06/30 08:23:55;;;;;;;19.40;14.93;;;;;;;;;;6215292;23;20031;-53
2021/06/30 08:26:21;;;;;;;16.17;13.82;;;;;;;;;;6215337;23;20550;-51
2021/06/30 08:28:48;;;;;;;16.95;14.55;;;;;;;;;;6214514;23;20001;-53
2021/06/30 08:31:14;;;;;;;17.70;15.00;;;;;;;;;;6215119;23;20036;-51
2021/06/30 08:33:40;;;;;;;17.45;14.52;;;;;;;;;;6215025;23;20385;-53
2021/06/30 08:36:06;;;;;;;22.77;16.00;;;;;;;;;;6214315;23;20028;-53
2021/06/30 08:38:32;;;;;;;19.25;15.10;;;;;;;;;;6213914;23;20007;-52
2021/06/30 08:40:59;;;;;;;21.42;16.05;;;;;;;;;;6187715;23;20417;-53
2021/06/30 08:43:25;;;;;;;21.38;17.13;;;;;;;;;;6214307;23;20004;-53
2021/06/30 08:45:51;;;;;;;19.42;15.70;;;;;;;;;;6214869;23;20059;-52
2021/06/30 08:48:18;;;;;;;20.33;15.82;;;;;;;;;;6213765;23;20012;-52
2021/06/30 08:50:44;;;;;;;21.23;16.80;;;;;;;;;;6187942;23;20014;-53
2021/06/30 08:53:12;;;;;;;23.00;17.23;;;;;;;;;;6214842;23;20001;-55
2021/06/30 08:55:38;;;;;;;22.48;17.35;;;;;;;;;;6214793;23;20007;-51
2021/06/30 08:58:05;;;;;;;21.35;16.00;;;;;;;;;;6213345;23;20059;-54
2021/06/30 09:00:31;;;;;;;22.23;17.48;;;;;;;;;;6214351;23;20421;-51
2021/06/30 09:02:59;;;;;;;22.98;17.60;;;;;;;;;;6212676;23;20039;-52
2021/06/30 09:07:54;;;;;;;20.45;16.42;;;;;;;;;;6214284;23;20090;-54
2021/06/30 09:10:36;;;;;;;22.27;16.77;;;;;;;;;;6214042;23;20009;-54
2021/06/30 09:13:03;;;;;;;19.40;14.95;;;;;;;;;;6214894;23;20080;-57
2021/06/30 09:15:34;;;;;;;19.05;16.33;;;;;;;;;;6214780;23;20025;-52
2021/06/30 09:18:19;;;;;;;19.15;15.18;;;;;;;;;;6214145;23;20046;-54
2021/06/30 09:20:48;;;;;;;19.40;14.77;;;;;;;;;;6214666;23;20004;-51
2021/06/30 09:23:14;;;;;;;22.17;16.73;;;;;;;;;;6214456;23;20005;-52
2021/06/30 09:25:41;;;;;;;20.50;16.30;;;;;;;;;;6214293;23;20004;-51
2021/06/30 09:28:13;;;;;;;18.90;15.52;;;;;;;;;;6214077;23;20008;-53
2021/06/30 09:30:58;;;;;;;17.17;14.50;;;;;;;;;;6214202;23;20066;-53
2021/06/30 09:33:24;;;;;;;20.05;14.95;;;;;;;;;;6213673;23;20059;-54
2021/06/30 09:36:01;;;;;;;22.20;16.15;;;;;;;;;;6187602;23;20005;-56
2021/06/30 09:38:30;;;;;;;20.17;15.07;;;;;;;;;;6213382;23;20950;-57
2021/06/30 09:40:56;;;;;;;16.38;14.43;;;;;;;;;;6213868;23;20008;-52
2021/06/30 09:43:23;;;;;;;16.05;14.10;;;;;;;;;;6213872;23;20008;-54
2021/06/30 09:45:49;;;;;;;16.13;12.80;;;;;;;;;;6212852;23;19997;-51
2021/06/30 09:48:26;;;;;;;14.88;12.40;;;;;;;;;;6213409;23;20017;-56
2021/06/30 09:50:52;;;;;;;15.93;13.45;;;;;;;;;;6213944;23;20062;-55
2021/06/30 09:53:30;;;;;;;17.27;13.55;;;;;;;;;;6213733;23;20005;-53
2021/06/30 09:56:07;;;;;;;16.35;13.63;;;;;;;;;;6214024;23;20032;-54
2021/06/30 09:58:33;;;;;;;14.13;12.15;;;;;;;;;;6213881;23;20468;-57
2021/06/30 10:01:18;;;;;;;13.68;11.60;;;;;;;;;;6211743;23;20001;-52
2021/06/30 10:03:45;;;;;;;17.90;13.25;;;;;;;;;;6214555;23;20329;-52
2021/06/30 10:06:27;;;;;;;21.77;15.43;;;;;;;;;;6214319;23;20075;-53
2021/06/30 10:08:54;;;;;;;17.23;13.60;;;;;;;;;;6214022;23;20016;-52
2021/06/30 10:11:20;;;;;;;17.42;13.63;;;;;;;;;;6213613;23;20036;-52
2021/06/30 10:13:47;;;;;;;18.48;14.10;;;;;;;;;;6214318;23;20027;-51
2021/06/30 10:16:16;;;;;;;17.15;14.63;;;;;;;;;;6213398;23;20032;-52
2021/06/30 10:18:42;;;;;;;20.13;15.30;;;;;;;;;;6214079;23;20070;-53
2021/06/30 10:21:08;;;;;;;16.65;13.63;;;;;;;;;;6214074;23;20005;-52
2021/06/30 10:23:34;;;;;;;18.77;14.68;;;;;;;;;;6213931;23;20494;-51
2021/06/30 10:26:00;;;;;;;16.40;12.75;;;;;;;;;;6214550;23;20005;-53
2021/06/30 10:28:28;;;;;;;19.15;15.30;;;;;;;;;;6214775;23;20530;-51
2021/06/30 10:30:54;;;;;;;19.85;14.75;;;;;;;;;;6215056;23;20138;-53
2021/06/30 10:33:31;;;;;;;17.83;13.95;;;;;;;;;;6215614;23;20440;-52
2021/06/30 10:35:58;;;;;;;17.17;13.88;;;;;;;;;;6215961;23;20073;-55
2021/06/30 10:38:44;;;;;;;17.40;13.82;;;;;;;;;;6215333;23;20008;-54
2021/06/30 10:41:29;;;;;;;16.08;13.95;;;;;;;;;;6189427;23;20557;-53
2021/06/30 10:44:11;;;;;;;16.95;14.38;;;;;;;;;;6215903;23;20089;-54
2021/06/30 10:46:37;;;;;;;19.33;14.65;;;;;;;;;;6215976;23;20358;-53
2021/06/30 10:49:24;;;;;;;20.27;14.52;;;;;;;;;;6215327;23;20017;-52
2021/06/30 10:51:57;;;;;;;18.02;15.15;;;;;;;;;;6215821;23;20004;-51
2021/06/30 10:54:32;;;;;;;17.23;12.85;;;;;;;;;;6216021;23;20622;-53
2021/06/30 10:57:17;;;;;;;20.00;14.98;;;;;;;;;;6215620;23;20087;-55
2021/06/30 11:00:02;;;;;;;17.80;13.70;;;;;;;;;;6215019;23;20429;-52
2021/06/30 11:02:32;;;;;;;15.68;12.60;;;;;;;;;;6216024;23;20286;-54
2021/06/30 11:05:18;;;;;;;17.30;13.05;;;;;;;;;;6215955;23;20043;-51
2021/06/30 11:07:45;;;;;;;18.02;12.93;;;;;;;;;;6215376;23;20001;-52
2021/06/30 11:10:17;;;;;;;16.83;12.77;;;;;;;;;;6215813;23;20434;-51
2021/06/30 11:12:56;;;;;;;16.27;12.45;;;;;;;;;;6215881;23;19996;-51
2021/06/30 11:15:38;;;;;;;16.35;12.88;;;;;;;;;;6215225;23;20011;-51
2021/06/30 11:18:04;;;;;;;15.30;11.88;;;;;;;;;;6215523;23;20452;-54
2021/06/30 11:20:50;;;;;;;16.27;12.50;;;;;;;;;;6215644;23;20412;-55
2021/06/30 11:23:20;;;;;;;14.57;11.63;;;;;;;;;;6215636;23;20032;-54
2021/06/30 11:25:46;;;;;;;14.40;11.52;;;;;;;;;;6214904;23;20032;-53
2021/06/30 11:28:29;;;;;;;17.25;11.48;;;;;;;;;;6214685;23;20013;-52
2021/06/30 11:30:55;;;;;;;14.60;11.02;;;;;;;;;;6215452;23;20301;-53
2021/06/30 11:33:21;;;;;;;14.13;11.13;;;;;;;;;;6215498;23;20000;-51
2021/06/30 11:35:48;;;;;;;15.52;11.40;;;;;;;;;;6214523;23;19996;-55
2021/06/30 11:38:19;;;;;;;11.50;10.30;;;;;;;;;;6214909;23;20004;-51
2021/06/30 11:40:53;;;;;;;11.20;9.60;;;;;;;;;;6214992;23;20001;-51
2021/06/30 11:43:23;;;;;;;14.35;10.73;;;;;;;;;;6215143;23;20000;-51
2021/06/30 11:45:52;;;;;;;15.07;11.15;;;;;;;;;;6214566;23;20080;-51
2021/06/30 11:48:18;;;;;;;11.15;9.68;;;;;;;;;;6214321;23;20012;-51
2021/06/30 11:50:54;;;;;;;11.35;9.38;;;;;;;;;;6214743;23;20091;-52
2021/06/30 11:53:33;;;;;;;11.85;9.40;;;;;;;;;;6215255;23;20047;-53
2021/06/30 11:55:59;;;;;;;12.57;8.38;;;;;;;;;;6214622;23;20405;-51
2021/06/30 11:58:42;;;;;;;12.82;8.05;;;;;;;;;;6214489;23;20000;-51
2021/06/30 12:01:18;;;;;;;11.27;8.38;;;;;;;;;;6213827;23;20001;-52
2021/06/30 12:03:44;;;;;;;9.55;8.05;;;;;;;;;;6214985;23;20004;-53
2021/06/30 12:06:22;;;;;;;7.80;6.57;;;;;;;;;;6214825;23;20011;-52
2021/06/30 12:09:08;;;;;;;6.75;6.03;;;;;;;;;;6214546;23;20082;-52
2021/06/30 12:11:36;;;;;;;7.35;5.97;;;;;;;;;;6214730;23;20283;-53
2021/06/30 12:14:04;;;;;;;7.63;6.20;;;;;;;;;;6214975;23;20007;-52
2021/06/30 12:16:42;;;;;;;6.38;5.72;;;;;;;;;;6214516;23;20437;-52
2021/06/30 12:19:19;;;;;;;10.07;5.72;;;;;;;;;;6214667;23;19997;-54
2021/06/30 12:21:46;;;;;;;7.28;5.93;;;;;;;;;;6215088;23;20004;-51
2021/06/30 12:24:16;;;;;;;6.72;5.20;;;;;;;;;;6215099;23;20410;-51
2021/06/30 12:26:55;;;;;;;8.07;5.53;;;;;;;;;;6215172;23;20010;-53
2021/06/30 12:29:21;;;;;;;8.50;6.03;;;;;;;;;;6214793;23;20691;-51
2021/06/30 12:31:47;;;;;;;7.20;5.10;;;;;;;;;;6213879;23;20070;-56
2021/06/30 12:34:13;;;;;;;8.80;5.88;;;;;;;;;;6214489;23;20417;-52
2021/06/30 12:36:39;;;;;;;7.72;5.78;;;;;;;;;;6214623;23;20058;-53
2021/06/30 12:39:21;;;;;;;8.93;5.57;;;;;;;;;;6213602;23;20000;-52
2021/06/30 12:41:54;;;;;;;8.13;5.70;;;;;;;;;;6214607;23;20001;-52
2021/06/30 12:44:20;;;;;;;;;;;;;;;;;;6215093;23;19996;-53
2021/06/30 12:46:46;;;;;;;9.50;6.05;;;;;;;;;;6214800;23;19916;-51
2021/06/30 12:49:13;;;;;;;9.52;6.10;;;;;;;;;;6213987;23;20491;-52
2021/06/30 12:51:39;;;;;;;10.43;6.55;;;;;;;;;;6214614;23;20004;-51
2021/06/30 12:54:05;;;;;;;11.45;8.32;;;;;;;;;;6214737;23;20012;-56
2021/06/30 12:56:42;;;;;;;10.23;7.38;;;;;;;;;;6214921;23;20027;-52
2021/06/30 12:59:15;;;;;;;20.30;9.15;;;;;;;;;;6214886;23;20075;-49
2021/06/30 13:01:41;;;;;;;16.90;11.63;;;;;;;;;;6214528;23;20004;-49
2021/06/30 13:04:08;;;;;;;19.83;12.25;;;;;;;;;;6214306;23;20031;-49
2021/06/30 13:06:47;;;;;;;23.52;13.95;;;;;;;;;;6213921;23;20309;-52
2021/06/30 13:09:17;;;;;;;29.30;14.32;;;;;;;;;;6214609;23;20016;-49
2021/06/30 13:11:47;;;;;;;30.88;15.63;;;;;;;;;;6214474;23;20009;-49
2021/06/30 13:14:16;;;;;;;34.10;17.08;;;;;;;;;;6214406;23;20005;-49
2021/06/30 13:17:02;;;;;;;26.05;16.38;;;;;;;;;;6214771;23;20475;-49
2021/06/30 13:19:32;;;;;;;32.42;17.38;;;;;;;;;;6213171;23;20502;-50
2021/06/30 13:22:01;;;;;;;35.47;18.27;;;;;;;;;;6213309;23;20025;-50
2021/06/30 13:24:52;;;;;;;37.70;19.58;;;;;;;;;;6212969;23;20000;-49
2021/06/30 13:28:06;;;;;;;36.55;19.52;;;;;;;;;;6213111;23;20475;-49
2021/06/30 13:36:03;;;;;;;43.83;21.40;;;;;;;;;;6213343;23;20433;-50
2021/06/30 13:38:31;;;;;;;45.33;22.05;;;;;;;;;;6213371;23;20778;-49
2021/06/30 13:40:59;;;;;;;51.00;23.40;;;;;;;;;;6213202;23;20047;-52
2021/06/30 13:43:25;;;;;;;40.53;22.25;;;;;;;;;;6214108;23;20508;-50
2021/06/30 13:45:52;;;;;;;59.53;26.00;;;;;;;;;;6214085;23;20047;-50
2021/06/30 13:48:19;;;;;;;43.28;23.85;;;;;;;;;;6214007;23;20099;-49
2021/06/30 13:50:47;;;;;;;47.67;23.73;;;;;;;;;;6213663;23;20015;-49
2021/06/30 13:53:13;;;;;;;52.65;24.23;;;;;;;;;;6214336;23;20004;-51
2021/06/30 13:55:40;;;;;;;44.58;21.73;;;;;;;;;;6214167;23;20001;-51
2021/06/30 13:58:06;;;;;;;50.50;21.95;;;;;;;;;;6214025;23;20104;-49
2021/06/30 14:00:33;;;;;;;42.05;19.65;;;;;;;;;;6214690;23;20719;-49
2021/06/30 14:02:59;;;;;;;31.88;16.85;;;;;;;;;;6213461;23;20005;-49
2021/06/30 14:05:25;;;;;;;36.65;16.35;;;;;;;;;;6188044;23;20005;-50
2021/06/30 14:07:51;;;;;;;31.08;15.80;;;;;;;;;;6213897;23;20001;-49
2021/06/30 14:10:17;;;;;;;25.50;13.75;;;;;;;;;;6214159;23;20035;-50
2021/06/30 14:12:43;;;;;;;28.67;15.02;;;;;;;;;;6213834;23;20404;-51
2021/06/30 14:15:10;;;;;;;28.90;15.20;;;;;;;;;;6213482;23;20001;-49
2021/06/30 14:17:36;;;;;;;21.67;13.27;;;;;;;;;;6213647;23;20057;-50
2021/06/30 14:20:04;;;;;;;24.35;13.75;;;;;;;;;;6213639;23;20004;-49
2021/06/30 14:22:31;;;;;;;22.45;12.98;;;;;;;;;;6213609;23;20075;-51
2021/06/30 14:24:58;;;;;;;27.27;13.60;;;;;;;;;;6213126;23;20083;-49
2021/06/30 14:27:24;;;;;;;27.25;14.05;;;;;;;;;;6213575;23;20004;-49
2021/06/30 14:29:52;;;;;;;26.23;13.85;;;;;;;;;;6212937;23;20054;-52
2021/06/30 14:32:18;;;;;;;25.33;13.30;;;;;;;;;;6214503;23;20004;-49